Terminal Aerodrome Forecast
Issued by NWS

Home | Current Version | Previous Version | Graphics & Text | Print | Product List | Glossary On
Versions: 1 2 3 4 5 6 7 8 9 10 11 12 13 14 15
000
FTUS43 KUNR 220200 AAB
TAFGCC
TAF AMD
KGCC 220241Z 2203/2224 30014KT P6SM SCT100
      TEMPO 2203/2205 P6SM -TSRA BKN060CB
     FM220500 VRB05KT P6SM SCT150=

USA.gov is the U.S. government's official web portal to all federal, state and local government web resources and services.